createdAt,value
2023-01-17T00:00:19.615Z,3.29
2023-01-17T00:03:11.084Z,3.22
2023-01-17T00:06:16.405Z,3.26
2023-01-17T00:09:21.654Z,3.22
2023-01-17T00:12:09.575Z,3.25
2023-01-17T00:15:00.465Z,3.20
2023-01-17T00:17:49.107Z,3.21
2023-01-17T00:20:55.509Z,3.22
2023-01-17T00:23:56.848Z,3.22
2023-01-17T00:26:58.616Z,3.21
2023-01-17T00:29:45.203Z,3.19
2023-01-17T00:32:31.655Z,3.17
2023-01-17T00:35:19.889Z,3.16
2023-01-17T00:38:09.920Z,3.16
2023-01-17T00:41:02.735Z,3.13
2023-01-17T00:44:07.943Z,3.14
2023-01-17T00:47:15.876Z,3.12
2023-01-17T00:50:21.028Z,3.11
2023-01-17T00:53:27.211Z,3.09
2023-01-17T00:56:32.176Z,3.07
2023-01-17T00:59:37.369Z,3.02
2023-01-17T01:02:43.439Z,3.04
2023-01-17T01:05:48.666Z,3.02
2023-01-17T01:08:54.836Z,2.98
2023-01-17T01:11:59.802Z,2.99
2023-01-17T01:15:05.041Z,2.99
2023-01-17T01:18:10.173Z,2.95
2023-01-17T01:21:15.214Z,2.91
2023-01-17T01:24:21.954Z,2.90
2023-01-17T01:27:27.102Z,2.87
2023-01-17T01:30:32.301Z,2.83
2023-01-17T01:33:18.767Z,2.81
2023-01-17T01:36:10.038Z,2.77
2023-01-17T01:38:57.918Z,2.74
2023-01-17T01:41:46.705Z,2.71
2023-01-17T01:44:46.278Z,2.73
2023-01-17T01:47:40.691Z,2.71
2023-01-17T01:50:30.529Z,2.69
2023-01-17T01:53:22.154Z,2.67
2023-01-17T01:56:13.982Z,2.67
2023-01-17T01:59:08.238Z,2.71
2023-01-17T02:01:58.244Z,2.69
2023-01-17T02:04:46.994Z,2.68
2023-01-17T02:07:42.772Z,2.69
2023-01-17T02:10:34.092Z,2.70
2023-01-17T02:13:22.315Z,2.68
2023-01-17T02:16:28.369Z,2.72
2023-01-17T02:20:19.677Z,2.66
2023-01-17T02:23:57.615Z,2.65
2023-01-17T02:27:05.506Z,2.70
2023-01-17T02:30:34.482Z,2.70
2023-01-17T02:33:33.840Z,2.65
2023-01-17T02:36:30.283Z,2.62
2023-01-17T02:39:24.633Z,2.66
2023-01-17T02:42:18.936Z,2.66
2023-01-17T02:45:08.792Z,2.63
2023-01-17T02:47:58.115Z,2.65
2023-01-17T02:51:09.531Z,2.61
2023-01-17T02:54:33.014Z,2.59
2023-01-17T02:57:44.970Z,2.60
2023-01-17T03:00:45.283Z,2.57
2023-01-17T03:03:47.629Z,2.52
2023-01-17T03:06:42.492Z,2.54
2023-01-17T03:09:32.616Z,2.50
2023-01-17T03:12:21.824Z,2.47
2023-01-17T03:15:12.964Z,2.45
2023-01-17T03:18:06.798Z,2.44
2023-01-17T03:20:55.768Z,2.44
2023-01-17T03:23:43.241Z,2.45
2023-01-17T03:26:31.747Z,2.46
2023-01-17T03:29:19.451Z,2.45
2023-01-17T03:32:07.577Z,2.44
2023-01-17T03:34:55.648Z,2.41
2023-01-17T03:37:44.685Z,2.38
2023-01-17T03:40:32.380Z,2.38
2023-01-17T03:43:20.099Z,2.37
2023-01-17T03:46:18.895Z,2.35
2023-01-17T03:49:06.288Z,2.35
2023-01-17T03:51:54.053Z,2.33
2023-01-17T03:54:42.754Z,2.33
2023-01-17T03:57:30.470Z,2.33
2023-01-17T04:00:19.139Z,2.32
2023-01-17T04:03:06.971Z,2.29
2023-01-17T04:05:54.549Z,2.30
2023-01-17T04:08:41.845Z,2.28
2023-01-17T04:11:30.918Z,2.24
2023-01-17T04:14:18.921Z,2.24
2023-01-17T04:17:06.969Z,2.24
2023-01-17T04:19:55.167Z,2.24
2023-01-17T04:22:42.496Z,2.20
2023-01-17T04:25:31.081Z,2.18
2023-01-17T04:28:20.047Z,2.13
2023-01-17T04:31:08.228Z,2.14
2023-01-17T04:33:55.886Z,2.04
2023-01-17T04:36:43.262Z,2.00
2023-01-17T04:39:30.801Z,2.00
2023-01-17T04:42:18.158Z,1.94
2023-01-17T04:45:08.751Z,1.97
2023-01-17T04:47:56.148Z,1.93
2023-01-17T04:50:43.632Z,1.90
2023-01-17T04:53:31.172Z,1.86
2023-01-17T04:56:19.665Z,1.81
2023-01-17T04:59:07.286Z,1.77
2023-01-17T05:01:56.100Z,1.73
2023-01-17T05:04:43.576Z,1.73
2023-01-17T05:07:30.951Z,1.71
2023-01-17T05:10:18.871Z,1.67
2023-01-17T05:13:06.760Z,1.60
2023-01-17T05:15:54.334Z,1.59
2023-01-17T05:18:43.062Z,1.50
2023-01-17T05:21:31.561Z,1.51
2023-01-17T05:24:19.829Z,1.48
2023-01-17T05:27:07.807Z,1.44
2023-01-17T05:29:55.222Z,1.43
2023-01-17T05:32:45.559Z,1.43
2023-01-17T05:35:35.038Z,1.42
2023-01-17T05:38:23.599Z,1.41
2023-01-17T05:41:11.646Z,1.39
2023-01-17T05:43:59.452Z,1.40
2023-01-17T05:46:46.968Z,1.39
2023-01-17T05:49:34.369Z,1.43
2023-01-17T05:52:23.187Z,1.43
2023-01-17T05:55:11.279Z,1.42
2023-01-17T05:57:59.715Z,1.43
2023-01-17T06:00:47.429Z,1.42
2023-01-17T06:03:35.225Z,1.45
2023-01-17T06:06:23.330Z,1.45
2023-01-17T06:09:12.694Z,1.44
2023-01-17T06:12:00.411Z,1.40
2023-01-17T06:14:47.819Z,1.42
2023-01-17T06:17:35.881Z,1.41
2023-01-17T06:20:23.395Z,1.38
2023-01-17T06:23:14.689Z,1.38
2023-01-17T06:26:08.396Z,1.39
2023-01-17T06:28:55.771Z,1.40
2023-01-17T06:31:43.297Z,1.40
2023-01-17T06:34:30.678Z,1.40
2023-01-17T06:37:18.571Z,1.36
2023-01-17T06:40:08.740Z,1.32
2023-01-17T06:43:02.150Z,1.32
2023-01-17T06:45:51.300Z,1.25
2023-01-17T06:48:39.157Z,1.26
2023-01-17T06:51:27.796Z,1.23
2023-01-17T06:54:15.598Z,1.19
2023-01-17T06:57:03.334Z,1.14
2023-01-17T06:59:52.105Z,1.15
2023-01-17T07:02:39.652Z,1.14
2023-01-17T07:05:28.484Z,1.15
2023-01-17T07:08:17.088Z,1.10
2023-01-17T07:11:08.965Z,1.09
2023-01-17T07:13:56.657Z,1.06
2023-01-17T07:16:46.183Z,0.98
2023-01-17T07:19:33.854Z,0.93
2023-01-17T07:22:21.446Z,0.84
2023-01-17T07:25:10.029Z,0.84
2023-01-17T07:27:57.780Z,0.73
2023-01-17T07:30:45.785Z,0.71
2023-01-17T07:33:34.976Z,0.65
2023-01-17T07:36:22.599Z,0.65
2023-01-17T07:39:11.509Z,0.64
2023-01-17T07:42:01.733Z,0.59
2023-01-17T07:44:52.197Z,0.54
2023-01-17T07:47:39.791Z,0.50
2023-01-17T07:50:29.166Z,0.48
2023-01-17T07:53:18.402Z,0.43
2023-01-17T07:56:08.663Z,0.40
2023-01-17T07:58:56.093Z,0.38
2023-01-17T08:01:43.863Z,0.39
2023-01-17T08:04:35.131Z,0.36
2023-01-17T08:07:25.708Z,0.34
2023-01-17T08:10:17.821Z,0.40
2023-01-17T08:13:05.424Z,0.51
2023-01-17T08:15:54.565Z,0.62
2023-01-17T08:18:42.168Z,0.71
2023-01-17T08:21:29.848Z,0.78
2023-01-17T08:24:19.231Z,0.85
2023-01-17T08:27:08.799Z,0.92
2023-01-17T08:29:56.696Z,0.94
2023-01-17T08:32:44.090Z,0.98
2023-01-17T08:35:31.954Z,1.02
2023-01-17T08:38:19.246Z,1.01
2023-01-17T08:41:08.468Z,0.99
2023-01-17T08:43:55.845Z,0.99
2023-01-17T08:46:44.204Z,0.99
2023-01-17T08:49:31.703Z,0.99
2023-01-17T08:52:19.130Z,0.98
2023-01-17T08:55:10.008Z,0.96
2023-01-17T08:57:59.339Z,0.96
2023-01-17T09:00:46.884Z,0.94
2023-01-17T09:03:38.400Z,0.93
2023-01-17T09:06:27.498Z,0.91
2023-01-17T09:09:16.331Z,0.92
2023-01-17T09:12:04.094Z,1.06
2023-01-17T09:14:52.947Z,1.15
2023-01-17T09:17:40.345Z,1.26
2023-01-17T09:20:30.187Z,1.35
2023-01-17T09:23:18.319Z,1.44
2023-01-17T09:26:06.421Z,1.52
2023-01-17T09:28:54.467Z,1.67
2023-01-17T09:31:43.540Z,1.68
2023-01-17T09:34:31.582Z,1.71
2023-01-17T09:37:19.046Z,1.76
2023-01-17T09:40:08.604Z,1.86
2023-01-17T09:43:04.117Z,1.92
2023-01-17T09:45:52.119Z,2.06
2023-01-17T09:48:44.030Z,2.01
2023-01-17T09:51:32.834Z,2.07
2023-01-17T09:54:25.628Z,2.10
2023-01-17T09:57:39.693Z,2.24
2023-01-17T10:00:56.323Z,2.37
2023-01-17T10:04:07.820Z,2.48
2023-01-17T10:07:15.636Z,2.59
2023-01-17T10:10:20.488Z,2.79
2023-01-17T10:13:31.609Z,2.89
2023-01-17T10:16:38.803Z,2.85
2023-01-17T10:19:57.448Z,2.91
2023-01-17T10:23:08.280Z,3.01
2023-01-17T10:26:01.800Z,3.04
2023-01-17T10:28:52.840Z,3.07
2023-01-17T10:31:46.218Z,3.13
2023-01-17T10:34:47.290Z,3.07
2023-01-17T10:37:41.531Z,2.95
2023-01-17T10:40:41.941Z,2.95
2023-01-17T10:43:44.474Z,2.91
2023-01-17T10:46:40.565Z,2.87
2023-01-17T10:49:29.571Z,2.93
2023-01-17T10:52:40.588Z,3.12
2023-01-17T10:55:44.523Z,3.22
2023-01-17T10:58:33.072Z,3.24
2023-01-17T11:01:22.541Z,3.35
2023-01-17T11:04:21.160Z,3.47
2023-01-17T11:07:15.164Z,3.60
2023-01-17T11:10:04.076Z,3.81
2023-01-17T11:12:51.655Z,4.03
2023-01-17T11:15:41.944Z,4.28
2023-01-17T11:18:32.591Z,4.49
2023-01-17T11:21:25.319Z,4.74
2023-01-17T11:24:27.020Z,4.80
2023-01-17T11:27:27.718Z,4.97
2023-01-17T11:30:18.653Z,4.88
2023-01-17T11:33:33.504Z,5.09
2023-01-17T11:36:27.269Z,5.33
2023-01-17T11:39:29.626Z,5.67
2023-01-17T11:42:40.094Z,6.26
2023-01-17T11:45:31.261Z,6.13
2023-01-17T11:48:19.577Z,6.28
2023-01-17T11:51:28.239Z,6.23
2023-01-17T11:54:23.499Z,6.40
2023-01-17T11:57:25.928Z,6.79
2023-01-17T12:00:23.524Z,6.72
2023-01-17T12:03:25.886Z,7.07
2023-01-17T12:06:26.004Z,7.40
2023-01-17T12:09:28.688Z,6.79
2023-01-17T12:12:53.221Z,7.17
2023-01-17T12:16:01.752Z,7.45
2023-01-17T12:19:02.042Z,7.05
2023-01-17T12:22:04.548Z,6.44
2023-01-17T12:25:14.945Z,6.27
2023-01-17T12:28:26.183Z,7.23
2023-01-17T12:31:28.526Z,7.37
2023-01-17T12:34:28.858Z,7.05
2023-01-17T12:37:24.535Z,7.11
2023-01-17T12:40:23.985Z,7.07
2023-01-17T12:43:22.672Z,7.22
2023-01-17T12:46:21.179Z,7.44
2023-01-17T12:49:25.093Z,7.74
2023-01-17T12:52:22.568Z,7.75
2023-01-17T12:55:18.324Z,7.92
2023-01-17T12:58:13.761Z,8.13
2023-01-17T13:01:09.753Z,8.32
2023-01-17T13:04:28.048Z,8.38
2023-01-17T13:07:29.234Z,8.37
2023-01-17T13:10:32.057Z,8.35
2023-01-17T13:13:24.134Z,7.73
2023-01-17T13:16:18.929Z,7.03
2023-01-17T13:19:22.089Z,7.43
2023-01-17T13:22:17.688Z,7.54
2023-01-17T13:25:30.819Z,7.46
2023-01-17T13:28:37.168Z,7.35
2023-01-17T13:31:48.316Z,7.39
2023-01-17T13:35:13.220Z,7.28
2023-01-17T13:38:54.950Z,7.18
2023-01-17T13:41:54.009Z,6.75
2023-01-17T13:44:41.982Z,6.64
2023-01-17T13:47:42.506Z,6.26
2023-01-17T13:50:54.051Z,6.26
2023-01-17T13:53:50.846Z,6.34
2023-01-17T13:56:38.375Z,6.15
2023-01-17T13:59:30.574Z,6.00
2023-01-17T14:02:39.365Z,5.82
2023-01-17T14:05:49.231Z,6.19
2023-01-17T14:08:45.869Z,5.84
2023-01-17T14:11:36.541Z,6.02
2023-01-17T14:14:50.471Z,6.10
2023-01-17T14:17:57.072Z,6.20
2023-01-17T14:21:11.242Z,6.15
2023-01-17T14:24:07.369Z,6.15
2023-01-17T14:27:00.120Z,6.07
2023-01-17T14:29:58.929Z,6.00
2023-01-17T14:33:15.957Z,5.91
2023-01-17T14:36:08.254Z,5.73
2023-01-17T14:38:55.755Z,5.70
2023-01-17T14:41:45.185Z,5.64
2023-01-17T14:44:34.124Z,5.54
2023-01-17T14:47:22.483Z,5.45
2023-01-17T14:50:23.916Z,5.26
2023-01-17T14:53:26.002Z,5.15
2023-01-17T14:56:17.146Z,5.02
2023-01-17T14:59:17.195Z,4.95
2023-01-17T15:02:09.863Z,4.81
2023-01-17T15:04:57.437Z,4.81
2023-01-17T15:07:48.448Z,4.73
2023-01-17T15:10:36.440Z,4.62
2023-01-17T15:13:43.357Z,4.54
2023-01-17T15:16:36.309Z,4.44
2023-01-17T15:19:24.223Z,4.37
2023-01-17T15:22:13.103Z,4.26
2023-01-17T15:25:01.315Z,4.25
2023-01-17T15:27:49.003Z,4.13
2023-01-17T15:30:36.774Z,4.06
2023-01-17T15:33:28.083Z,3.97
2023-01-17T15:36:30.163Z,3.92
2023-01-17T15:39:24.095Z,3.84
2023-01-17T15:42:25.362Z,3.75
2023-01-17T15:45:19.893Z,3.67
2023-01-17T15:48:38.481Z,3.57
2023-01-17T15:51:37.002Z,3.49
2023-01-17T15:54:47.930Z,3.38
2023-01-17T15:57:37.617Z,3.30
2023-01-17T16:00:32.471Z,3.23
2023-01-17T16:03:26.568Z,3.14
2023-01-17T16:06:38.242Z,3.07
2023-01-17T16:09:26.244Z,3.01
2023-01-17T16:12:13.721Z,2.94
2023-01-17T16:15:12.454Z,2.84
2023-01-17T16:18:07.463Z,2.75
2023-01-17T16:21:01.141Z,2.71
2023-01-17T16:23:50.719Z,2.66
2023-01-17T16:26:38.283Z,2.59
2023-01-17T16:29:25.788Z,2.51
2023-01-17T16:32:15.393Z,2.48
2023-01-17T16:35:03.210Z,2.44
2023-01-17T16:37:51.768Z,2.38
2023-01-17T16:40:44.960Z,2.35
2023-01-17T16:43:32.550Z,2.29
2023-01-17T16:46:22.216Z,2.23
2023-01-17T16:49:09.660Z,2.20
2023-01-17T16:51:56.969Z,2.17
2023-01-17T16:54:44.537Z,2.12
2023-01-17T16:57:33.757Z,2.08
2023-01-17T17:00:22.573Z,2.02
2023-01-17T17:03:17.875Z,1.97
2023-01-17T17:06:05.689Z,1.93
2023-01-17T17:08:53.136Z,1.86
2023-01-17T17:11:43.194Z,1.83
2023-01-17T17:14:32.328Z,1.82
2023-01-17T17:17:19.836Z,1.78
2023-01-17T17:20:11.445Z,1.77
2023-01-17T17:22:58.791Z,1.72
2023-01-17T17:25:46.199Z,1.70
2023-01-17T17:28:33.942Z,1.68
2023-01-17T17:31:26.529Z,1.65
2023-01-17T17:34:16.188Z,1.65
2023-01-17T17:37:04.061Z,1.60
2023-01-17T17:39:51.433Z,1.55
2023-01-17T17:42:39.001Z,1.53
2023-01-17T17:45:26.566Z,1.50
2023-01-17T17:48:15.485Z,1.49
2023-01-17T17:51:04.548Z,1.47
2023-01-17T17:53:52.665Z,1.43
2023-01-17T17:56:41.109Z,1.37
2023-01-17T17:59:29.811Z,1.31
2023-01-17T18:02:17.477Z,1.27
2023-01-17T18:05:08.035Z,1.26
2023-01-17T18:07:56.009Z,1.23
2023-01-17T18:10:44.686Z,1.16
2023-01-17T18:13:33.605Z,1.11
2023-01-17T18:16:24.593Z,1.07
2023-01-17T18:19:15.650Z,1.04
2023-01-17T18:22:04.345Z,1.00
2023-01-17T18:24:51.853Z,0.94
2023-01-17T18:27:39.686Z,0.91
2023-01-17T18:30:27.245Z,0.90
2023-01-17T18:33:14.541Z,0.86
2023-01-17T18:36:04.631Z,0.84
2023-01-17T18:38:53.832Z,0.78
2023-01-17T18:41:41.947Z,0.74
2023-01-17T18:44:30.260Z,0.70
2023-01-17T18:47:17.744Z,0.62
2023-01-17T18:50:09.331Z,0.58
2023-01-17T18:52:57.062Z,0.54
2023-01-17T18:55:57.059Z,0.47
2023-01-17T18:59:17.470Z,0.48
2023-01-17T19:02:05.834Z,0.44
2023-01-17T19:05:01.765Z,0.42
2023-01-17T19:07:51.009Z,0.39
2023-01-17T19:10:38.814Z,0.35
2023-01-17T19:13:28.428Z,0.27
2023-01-17T19:16:23.796Z,0.29
2023-01-17T19:19:17.584Z,0.31
2023-01-17T19:22:06.243Z,0.28
2023-01-17T19:25:10.624Z,0.25
2023-01-17T19:28:01.375Z,0.24
2023-01-17T19:31:05.178Z,0.22
2023-01-17T19:33:58.326Z,0.21
2023-01-17T19:36:48.878Z,0.18
2023-01-17T19:39:43.475Z,0.18
2023-01-17T19:42:37.085Z,0.16
2023-01-17T19:45:25.828Z,0.18
2023-01-17T19:48:15.318Z,0.17
2023-01-17T19:51:08.921Z,0.18
2023-01-17T19:54:02.410Z,0.18
2023-01-17T19:56:51.034Z,0.17
2023-01-17T19:59:38.687Z,0.16
2023-01-17T20:02:26.778Z,0.17
2023-01-17T20:05:18.136Z,0.16
2023-01-17T20:08:06.312Z,0.18
2023-01-17T20:10:55.541Z,0.19
2023-01-17T20:13:49.819Z,0.18
2023-01-17T20:16:37.982Z,0.23
2023-01-17T20:19:29.946Z,0.25
2023-01-17T20:22:20.873Z,0.27
2023-01-17T20:25:14.104Z,0.26
2023-01-17T20:28:01.779Z,0.34
2023-01-17T20:30:49.658Z,0.37
2023-01-17T20:33:40.441Z,0.37
2023-01-17T20:36:29.921Z,0.39
2023-01-17T20:39:19.670Z,0.40
2023-01-17T20:42:07.422Z,0.39
2023-01-17T20:44:55.015Z,0.39
2023-01-17T20:47:42.525Z,0.39
2023-01-17T20:50:30.125Z,0.40
2023-01-17T20:53:19.328Z,0.40
2023-01-17T20:56:09.827Z,0.40
2023-01-17T20:58:57.946Z,0.44
2023-01-17T21:01:49.220Z,0.43
2023-01-17T21:04:37.355Z,0.46
2023-01-17T21:07:25.319Z,0.49
2023-01-17T21:10:13.096Z,0.48
2023-01-17T21:13:03.169Z,0.49
2023-01-17T21:15:52.092Z,0.49
2023-01-17T21:18:39.697Z,0.49
2023-01-17T21:21:32.075Z,0.49
2023-01-17T21:24:20.121Z,0.49
2023-01-17T21:27:09.065Z,0.50
2023-01-17T21:30:00.172Z,0.49
2023-01-17T21:32:47.698Z,0.52
2023-01-17T21:35:35.492Z,0.51
2023-01-17T21:38:23.040Z,0.51
2023-01-17T21:41:13.529Z,0.53
2023-01-17T21:44:03.860Z,0.55
2023-01-17T21:46:56.098Z,0.59
2023-01-17T21:49:45.641Z,0.59
2023-01-17T21:52:33.612Z,0.61
2023-01-17T21:55:38.749Z,0.59
2023-01-17T21:58:44.634Z,0.62
2023-01-17T22:01:34.469Z,0.65
2023-01-17T22:04:24.536Z,0.66
2023-01-17T22:07:12.298Z,0.67
2023-01-17T22:09:59.899Z,0.69
2023-01-17T22:12:48.645Z,0.70
2023-01-17T22:15:36.511Z,0.70
2023-01-17T22:18:24.522Z,0.70
2023-01-17T22:21:16.700Z,0.71
2023-01-17T22:24:06.631Z,0.72
2023-01-17T22:26:59.572Z,0.76
2023-01-17T22:29:47.151Z,0.75
2023-01-17T22:32:35.145Z,0.76
2023-01-17T22:35:23.036Z,0.78
2023-01-17T22:38:12.311Z,0.78
2023-01-17T22:41:08.035Z,0.77
2023-01-17T22:43:58.733Z,0.76
2023-01-17T22:46:46.351Z,0.77
2023-01-17T22:49:33.983Z,0.78
2023-01-17T22:52:21.333Z,0.78
2023-01-17T22:55:12.142Z,0.80
2023-01-17T22:57:59.684Z,0.79
2023-01-17T23:00:47.525Z,0.78
2023-01-17T23:03:36.197Z,0.78
2023-01-17T23:06:28.575Z,0.77
2023-01-17T23:09:17.867Z,0.77
2023-01-17T23:12:07.840Z,0.79
2023-01-17T23:15:13.234Z,0.79
2023-01-17T23:18:18.967Z,0.80
2023-01-17T23:21:08.987Z,0.80
2023-01-17T23:23:56.528Z,0.81
2023-01-17T23:27:03.928Z,0.80
2023-01-17T23:29:51.887Z,0.83
2023-01-17T23:32:40.154Z,0.84
2023-01-17T23:35:31.606Z,0.82
2023-01-17T23:38:29.345Z,0.83
2023-01-17T23:41:34.348Z,0.84
2023-01-17T23:44:27.127Z,0.83
2023-01-17T23:47:15.862Z,0.83
2023-01-17T23:50:03.325Z,0.84
2023-01-17T23:52:50.837Z,0.85
2023-01-17T23:55:40.824Z,0.85
2023-01-17T23:58:29.556Z,0.86
